KHPN Airport Information

Runway Information
Runway 11 Length 4451 ft width 150 ft
Elevation 398 ft Threshold 0 ft Heading 102
Runway 29 Length 4451 ft Width 150 ft
Elevation 387 ft Threshold 1297 ft Heading 282
Runway 16 Length 6548 ft width 150 ft
Elevation 439 ft Threshold 0 ft Heading 150
Runway 34 Length 6548 ft Width 150 ft
Elevation 380 ft Threshold 0 ft Heading 330
Airport Frequencies
Type APP Name NEW YORK A Frequency 120.8 MHZ
Type ATIS Name ATIS Frequency 133.8 MHZ
Type CLD Name CLNC DEL Frequency 127.25 MHZ
Type CTAF Name CTAF Frequency 118.575 MHZ
Type DEP Name NEW YORK D Frequency 120.55 MHZ
Type GND Name GND Frequency 121.825 MHZ
Type TWR Name TWR Frequency 118.575 MHZ
Type UNIC Name UNICOM Frequency 122.95 MHZ
Airport Navaids
Type NDB Name Hestr Frequency 281 KHZ
Airport Weather Information & NOTAM
KHPN 190056Z 31009KT 10SM CLR 08/02 A2996 RMK AO2 SLP146 T00830022